createdAt,value
2018-07-22T00:00:39.091Z,6.10
2018-07-22T00:03:07.494Z,6.25
2018-07-22T00:05:35.904Z,6.42
2018-07-22T00:08:04.265Z,6.53
2018-07-22T00:10:32.596Z,6.30
2018-07-22T00:13:01.251Z,6.08
2018-07-22T00:15:29.750Z,6.30
2018-07-22T00:17:58.182Z,5.75
2018-07-22T00:20:26.518Z,5.50
2018-07-22T00:22:54.894Z,5.40
2018-07-22T00:25:23.234Z,5.72
2018-07-22T00:27:51.672Z,5.70
2018-07-22T00:30:19.997Z,5.10
2018-07-22T00:32:48.291Z,5.53
2018-07-22T00:35:16.592Z,6.20
2018-07-22T00:37:45.007Z,5.75
2018-07-22T00:40:13.359Z,6.17
2018-07-22T00:42:42.063Z,6.08
2018-07-22T00:45:12.545Z,5.97
2018-07-22T00:47:41.319Z,6.50
2018-07-22T00:50:09.687Z,6.42
2018-07-22T00:52:38.254Z,6.40
2018-07-22T00:55:06.885Z,6.85
2018-07-22T00:57:35.208Z,7.10
2018-07-22T01:00:04.215Z,6.95
2018-07-22T01:02:32.509Z,6.62
2018-07-22T01:05:00.818Z,7.05
2018-07-22T01:07:29.267Z,6.90
2018-07-22T01:09:57.600Z,7.00
2018-07-22T01:12:25.925Z,7.03
2018-07-22T01:14:54.503Z,7.30
2018-07-22T01:17:22.821Z,7.20
2018-07-22T01:19:51.126Z,6.80
2018-07-22T01:22:19.451Z,7.12
2018-07-22T01:24:47.731Z,7.30
2018-07-22T01:27:16.063Z,7.87
2018-07-22T01:29:44.402Z,7.08
2018-07-22T01:32:12.775Z,7.05
2018-07-22T01:34:41.066Z,6.78
2018-07-22T01:37:09.419Z,6.78
2018-07-22T01:39:37.727Z,7.35
2018-07-22T01:42:06.052Z,6.70
2018-07-22T01:44:34.337Z,7.00
2018-07-22T01:47:02.684Z,7.08
2018-07-22T01:49:31.067Z,7.40
2018-07-22T01:51:59.394Z,6.35
2018-07-22T01:54:27.679Z,6.85
2018-07-22T01:56:55.982Z,6.95
2018-07-22T01:59:24.336Z,6.70
2018-07-22T02:01:52.688Z,6.70
2018-07-22T02:04:20.967Z,6.90
2018-07-22T02:06:49.369Z,7.47
2018-07-22T02:09:17.885Z,7.00
2018-07-22T02:11:46.233Z,7.25
2018-07-22T02:14:14.536Z,7.35
2018-07-22T02:16:42.965Z,7.90
2018-07-22T02:19:11.273Z,7.22
2018-07-22T02:21:39.782Z,7.22
2018-07-22T02:24:08.062Z,7.25
2018-07-22T02:26:36.379Z,7.78
2018-07-22T02:29:04.675Z,7.90
2018-07-22T02:31:33.043Z,7.65
2018-07-22T02:34:01.306Z,8.08
2018-07-22T02:36:29.610Z,7.83
2018-07-22T02:38:57.872Z,7.95
2018-07-22T02:41:26.218Z,7.78
2018-07-22T02:43:54.517Z,7.60
2018-07-22T02:46:22.978Z,8.30
2018-07-22T02:48:51.323Z,8.25
2018-07-22T02:51:19.776Z,8.80
2018-07-22T02:53:48.167Z,8.25
2018-07-22T02:56:16.818Z,8.50
2018-07-22T02:58:45.150Z,8.65
2018-07-22T03:01:13.515Z,9.33
2018-07-22T03:03:41.894Z,9.33
2018-07-22T03:06:10.215Z,9.30
2018-07-22T03:08:38.489Z,9.98
2018-07-22T03:11:06.871Z,9.85
2018-07-22T03:13:35.204Z,9.38
2018-07-22T03:16:03.503Z,10.28
2018-07-22T03:18:31.861Z,9.25
2018-07-22T03:21:00.252Z,9.85
2018-07-22T03:23:28.602Z,9.63
2018-07-22T03:25:57.035Z,10.13
2018-07-22T03:28:25.377Z,11.25
2018-07-22T03:30:53.684Z,10.65
2018-07-22T03:33:21.990Z,10.23
2018-07-22T03:35:50.313Z,10.78
2018-07-22T03:38:18.686Z,10.25
2018-07-22T03:40:46.983Z,10.23
2018-07-22T03:43:15.651Z,10.82
2018-07-22T03:45:43.999Z,9.85
2018-07-22T03:48:12.323Z,10.72
2018-07-22T03:50:40.588Z,10.60
2018-07-22T03:53:08.944Z,10.95
2018-07-22T03:55:37.247Z,10.95
2018-07-22T03:58:05.746Z,10.85
2018-07-22T04:00:34.049Z,11.30
2018-07-22T04:03:02.392Z,11.45
2018-07-22T04:05:30.708Z,13.15
2018-07-22T04:07:59.022Z,12.37
2018-07-22T04:10:27.289Z,12.80
2018-07-22T04:12:55.598Z,12.45
2018-07-22T04:15:23.915Z,12.58
2018-07-22T04:17:52.479Z,12.23
2018-07-22T04:20:20.795Z,11.85
2018-07-22T04:22:49.629Z,12.70
2018-07-22T04:25:18.526Z,12.35
2018-07-22T04:27:47.368Z,11.90
2018-07-22T04:30:15.751Z,11.97
2018-07-22T04:32:44.209Z,12.88
2018-07-22T04:35:12.475Z,13.00
2018-07-22T04:37:41.111Z,12.20
2018-07-22T04:40:09.621Z,12.60
2018-07-22T04:42:38.648Z,12.23
2018-07-22T04:45:07.403Z,12.25
2018-07-22T04:47:35.730Z,11.50
2018-07-22T04:50:04.106Z,12.28
2018-07-22T04:52:32.494Z,11.50
2018-07-22T04:55:00.852Z,12.93
2018-07-22T04:57:29.403Z,12.50
2018-07-22T04:59:57.729Z,12.93
2018-07-22T05:02:26.019Z,12.88
2018-07-22T05:04:54.351Z,12.10
2018-07-22T05:07:23.937Z,12.85
2018-07-22T05:09:52.259Z,12.43
2018-07-22T05:12:20.660Z,12.45
2018-07-22T05:14:49.038Z,12.25
2018-07-22T05:17:17.354Z,12.30
2018-07-22T05:19:45.694Z,12.88
2018-07-22T05:22:14.001Z,12.07
2018-07-22T05:24:42.318Z,13.00
2018-07-22T05:27:10.684Z,12.30
2018-07-22T05:29:39.538Z,12.43
2018-07-22T05:32:07.875Z,11.95
2018-07-22T05:34:36.268Z,12.82
2018-07-22T05:37:04.588Z,12.33
2018-07-22T05:39:32.993Z,12.40
2018-07-22T05:42:01.375Z,11.70
2018-07-22T05:44:29.695Z,12.75
2018-07-22T05:46:58.061Z,12.28
2018-07-22T05:49:26.403Z,12.93
2018-07-22T05:51:54.738Z,12.37
2018-07-22T05:54:24.281Z,12.63
2018-07-22T05:56:52.654Z,12.28
2018-07-22T05:59:21.002Z,12.05
2018-07-22T06:01:49.294Z,12.55
2018-07-22T06:04:17.619Z,13.10
2018-07-22T06:06:45.964Z,11.93
2018-07-22T06:09:14.310Z,12.40
2018-07-22T06:11:42.610Z,13.35
2018-07-22T06:14:10.958Z,12.70
2018-07-22T06:16:39.357Z,13.18
2018-07-22T06:19:07.639Z,13.00
2018-07-22T06:21:35.994Z,13.40
2018-07-22T06:24:04.312Z,13.05
2018-07-22T06:26:32.638Z,12.90
2018-07-22T06:29:00.955Z,13.55
2018-07-22T06:31:29.301Z,13.38
2018-07-22T06:33:57.697Z,13.08
2018-07-22T06:36:26.022Z,12.63
2018-07-22T06:38:54.297Z,13.30
2018-07-22T06:41:22.708Z,12.82
2018-07-22T06:43:51.065Z,12.53
2018-07-22T06:46:19.373Z,13.00
2018-07-22T06:48:47.904Z,12.28
2018-07-22T06:51:16.427Z,12.60
2018-07-22T06:53:44.908Z,13.43
2018-07-22T06:56:13.254Z,12.37
2018-07-22T06:58:41.627Z,12.07
2018-07-22T07:01:09.967Z,12.70
2018-07-22T07:03:38.243Z,12.75
2018-07-22T07:06:06.617Z,12.70
2018-07-22T07:08:35.015Z,12.20
2018-07-22T07:11:03.564Z,11.85
2018-07-22T07:13:32.830Z,12.30
2018-07-22T07:16:01.135Z,12.65
2018-07-22T07:18:29.462Z,12.60
2018-07-22T07:20:57.788Z,12.53
2018-07-22T07:23:26.084Z,13.03
2018-07-22T07:25:55.150Z,12.30
2018-07-22T07:28:23.427Z,11.93
2018-07-22T07:30:52.101Z,12.10
2018-07-22T07:33:20.948Z,11.25
2018-07-22T07:35:49.637Z,11.73
2018-07-22T07:38:18.157Z,12.13
2018-07-22T07:40:47.515Z,11.22
2018-07-22T07:43:16.411Z,11.20
2018-07-22T07:45:45.147Z,10.28
2018-07-22T07:48:13.950Z,11.20
2018-07-22T07:50:42.910Z,11.12
2018-07-22T07:53:12.535Z,11.50
2018-07-22T07:55:43.006Z,12.55
2018-07-22T07:58:30.692Z,13.20
2018-07-22T08:01:01.444Z,12.10
2018-07-22T08:03:34.761Z,12.65
2018-07-22T08:06:03.699Z,13.30
2018-07-22T08:08:34.549Z,13.15
2018-07-22T08:11:03.104Z,13.05
2018-07-22T08:13:31.844Z,12.78
2018-07-22T08:16:00.793Z,12.78
2018-07-22T08:18:30.856Z,13.32
2018-07-22T08:20:59.611Z,12.80
2018-07-22T08:26:02.059Z,13.90
2018-07-22T08:29:48.841Z,13.65
2018-07-22T08:32:17.612Z,12.82
2018-07-22T08:34:46.237Z,13.50
2018-07-22T08:37:14.963Z,12.82
2018-07-22T08:39:43.572Z,13.18
2018-07-22T08:42:12.369Z,12.73
2018-07-22T08:44:41.117Z,12.53
2018-07-22T08:47:09.826Z,12.50
2018-07-22T08:49:40.917Z,12.88
2018-07-22T08:52:09.555Z,13.72
2018-07-22T08:54:38.097Z,12.95
2018-07-22T08:57:06.915Z,12.35
2018-07-22T08:59:36.674Z,12.68
2018-07-22T09:02:05.420Z,12.70
2018-07-22T09:04:33.920Z,12.85
2018-07-22T09:07:02.555Z,12.30
2018-07-22T09:09:30.998Z,12.47
2018-07-22T09:11:59.504Z,13.08
2018-07-22T09:14:27.942Z,12.50
2018-07-22T09:16:56.615Z,12.60
2018-07-22T09:19:25.211Z,12.10
2018-07-22T09:21:53.790Z,12.68
2018-07-22T09:24:22.396Z,12.25
2018-07-22T09:26:50.877Z,12.37
2018-07-22T09:29:20.452Z,12.03
2018-07-22T09:31:49.189Z,13.30
2018-07-22T09:34:18.576Z,12.18
2018-07-22T09:36:47.211Z,12.73
2018-07-22T09:39:15.760Z,13.22
2018-07-22T09:41:45.266Z,12.47
2018-07-22T09:44:13.848Z,12.58
2018-07-22T09:46:56.454Z,12.13
2018-07-22T09:49:25.468Z,12.03
2018-07-22T09:51:53.784Z,11.65
2018-07-22T09:54:22.183Z,11.88
2018-07-22T09:56:50.731Z,11.88
2018-07-22T09:59:19.057Z,11.65
2018-07-22T10:01:47.343Z,11.90
2018-07-22T10:04:15.607Z,12.53
2018-07-22T10:06:43.911Z,12.60
2018-07-22T10:09:12.646Z,11.28
2018-07-22T10:11:40.981Z,11.80
2018-07-22T10:14:09.433Z,11.30
2018-07-22T10:16:37.859Z,11.85
2018-07-22T10:19:06.896Z,11.97
2018-07-22T10:21:35.340Z,11.15
2018-07-22T10:24:03.817Z,10.72
2018-07-22T10:26:32.467Z,10.50
2018-07-22T10:29:02.023Z,11.20
2018-07-22T10:31:30.347Z,11.22
2018-07-22T10:33:59.610Z,11.90
2018-07-22T10:36:27.996Z,11.45
2018-07-22T10:38:56.570Z,11.05
2018-07-22T10:41:26.551Z,11.28
2018-07-22T10:43:54.864Z,10.82
2018-07-22T10:46:26.525Z,11.05
2018-07-22T10:48:57.427Z,10.35
2018-07-22T10:51:26.628Z,11.50
2018-07-22T10:53:55.016Z,11.88
2018-07-22T10:56:23.511Z,11.22
2018-07-22T10:58:52.280Z,11.03
2018-07-22T11:01:21.667Z,12.15
2018-07-22T11:03:50.708Z,10.98
2018-07-22T11:06:19.062Z,11.22
2018-07-22T11:08:48.262Z,11.12
2018-07-22T11:11:16.658Z,11.35
2018-07-22T11:13:45.093Z,11.38
2018-07-22T11:16:13.375Z,10.78
2018-07-22T11:18:42.826Z,11.57
2018-07-22T11:21:12.632Z,11.15
2018-07-22T11:23:41.938Z,10.75
2018-07-22T11:26:12.067Z,11.25
2018-07-22T11:28:40.746Z,11.25
2018-07-22T11:31:09.965Z,10.05
2018-07-22T11:33:39.238Z,11.30
2018-07-22T11:36:07.978Z,10.50
2018-07-22T11:38:37.785Z,10.68
2018-07-22T11:41:06.890Z,11.00
2018-07-22T11:43:35.275Z,10.98
2018-07-22T11:46:04.646Z,11.68
2018-07-22T11:48:34.446Z,11.10
2018-07-22T11:51:04.175Z,11.22
2018-07-22T11:53:33.318Z,11.30
2018-07-22T11:56:01.842Z,11.08
2018-07-22T11:58:31.139Z,10.32
2018-07-22T12:01:01.037Z,10.98
2018-07-22T12:03:29.690Z,10.55
2018-07-22T12:05:59.697Z,10.43
2018-07-22T12:08:28.165Z,10.23
2018-07-22T12:10:57.146Z,10.32
2018-07-22T12:13:27.196Z,10.78
2018-07-22T12:15:56.297Z,10.28
2018-07-22T12:18:24.788Z,10.28
2018-07-22T12:20:53.755Z,10.68
2018-07-22T12:23:24.502Z,11.20
2018-07-22T12:25:55.021Z,10.25
2018-07-22T12:28:23.491Z,10.23
2018-07-22T12:30:52.067Z,9.90
2018-07-22T12:33:20.432Z,10.13
2018-07-22T12:35:49.035Z,10.18
2018-07-22T12:38:17.600Z,9.88
2018-07-22T12:40:46.508Z,10.43
2018-07-22T12:43:14.868Z,9.90
2018-07-22T12:45:43.260Z,10.15
2018-07-22T12:48:11.667Z,11.30
2018-07-22T12:50:40.081Z,11.28
2018-07-22T12:53:08.867Z,9.38
2018-07-22T12:55:37.331Z,9.40
2018-07-22T12:58:05.723Z,9.55
2018-07-22T13:00:34.070Z,9.18
2018-07-22T13:03:04.415Z,9.15
2018-07-22T13:05:32.875Z,8.28
2018-07-22T13:08:01.735Z,6.53
2018-07-22T13:10:30.094Z,6.62
2018-07-22T13:12:58.590Z,6.58
2018-07-22T13:15:26.943Z,7.22
2018-07-22T13:17:55.569Z,7.00
2018-07-22T13:20:23.966Z,6.83
2018-07-22T13:22:52.643Z,7.15
2018-07-22T13:25:20.986Z,6.95
2018-07-22T13:27:49.361Z,7.65
2018-07-22T13:30:17.872Z,7.60
2018-07-22T13:32:46.772Z,7.58
2018-07-22T13:35:15.482Z,8.93
2018-07-22T13:37:44.026Z,7.97
2018-07-22T13:40:12.385Z,8.83
2018-07-22T13:42:41.185Z,8.50
2018-07-22T13:45:09.531Z,9.23
2018-07-22T13:47:37.821Z,8.25
2018-07-22T13:50:06.648Z,9.43
2018-07-22T13:52:35.014Z,9.38
2018-07-22T13:55:03.476Z,8.35
2018-07-22T13:57:32.152Z,8.05
2018-07-22T14:00:00.600Z,8.48
2018-07-22T14:02:29.893Z,9.03
2018-07-22T14:04:58.912Z,10.18
2018-07-22T14:07:27.975Z,9.93
2018-07-22T14:09:56.455Z,9.55
2018-07-22T14:12:25.066Z,9.58
2018-07-22T14:14:53.952Z,10.93
2018-07-22T14:17:22.377Z,11.30
2018-07-22T14:19:51.777Z,12.30
2018-07-22T14:22:20.256Z,12.35
2018-07-22T14:24:48.661Z,12.50
2018-07-22T14:27:17.075Z,12.95
2018-07-22T14:29:45.390Z,13.22
2018-07-22T14:32:14.245Z,15.28
2018-07-22T14:34:42.895Z,15.65
2018-07-22T14:37:11.641Z,15.13
2018-07-22T14:39:40.052Z,14.05
2018-07-22T14:42:08.567Z,14.85
2018-07-22T14:44:36.935Z,13.20
2018-07-22T14:47:05.790Z,15.83
2018-07-22T14:49:34.213Z,15.68
2018-07-22T14:52:02.623Z,16.32
2018-07-22T14:54:31.121Z,16.10
2018-07-22T14:56:59.731Z,15.75
2018-07-22T14:59:28.286Z,16.40
2018-07-22T15:01:56.866Z,16.40
2018-07-22T15:04:25.912Z,16.45
2018-07-22T15:06:54.746Z,15.32
2018-07-22T15:09:23.109Z,15.80
2018-07-22T15:11:51.471Z,15.23
2018-07-22T15:14:19.989Z,15.72
2018-07-22T15:16:48.534Z,15.15
2018-07-22T15:19:17.166Z,15.58
2018-07-22T15:21:45.506Z,16.35
2018-07-22T15:24:13.922Z,17.07
2018-07-22T15:26:42.455Z,18.40
2018-07-22T15:29:10.948Z,15.90
2018-07-22T15:31:39.418Z,17.42
2018-07-22T15:34:08.012Z,17.30
2018-07-22T15:36:36.574Z,17.55
2018-07-22T15:39:08.038Z,18.15
2018-07-22T15:41:36.490Z,17.25
2018-07-22T15:44:05.077Z,16.85
2018-07-22T15:46:34.231Z,18.77
2018-07-22T15:49:04.266Z,17.87
2018-07-22T15:51:37.577Z,19.17
2018-07-22T15:54:06.874Z,18.70
2018-07-22T15:56:35.838Z,18.30
2018-07-22T15:59:04.535Z,17.37
2018-07-22T16:01:32.862Z,17.65
2018-07-22T16:04:01.419Z,18.75
2018-07-22T16:06:30.371Z,17.73
2018-07-22T16:08:58.912Z,17.35
2018-07-22T16:11:28.664Z,19.80
2018-07-22T16:14:00.364Z,17.35
2018-07-22T16:16:29.386Z,17.07
2018-07-22T16:19:09.774Z,12.68
2018-07-22T16:21:53.768Z,10.95
2018-07-22T16:24:23.388Z,9.40
2018-07-22T16:26:52.089Z,8.23
2018-07-22T16:29:21.117Z,8.40
2018-07-22T16:31:49.943Z,8.48
2018-07-22T16:34:18.287Z,10.00
2018-07-22T16:36:46.749Z,10.23
2018-07-22T16:39:25.765Z,9.65
2018-07-22T16:41:54.270Z,7.53
2018-07-22T16:44:22.554Z,8.68
2018-07-22T16:46:51.775Z,8.88
2018-07-22T16:49:20.227Z,13.03
2018-07-22T16:51:48.579Z,13.98
2018-07-22T16:54:16.898Z,13.10
2018-07-22T16:56:45.324Z,14.03
2018-07-22T16:59:13.631Z,12.93
2018-07-22T17:01:41.967Z,12.90
2018-07-22T17:04:12.043Z,12.60
2018-07-22T17:06:40.418Z,12.00
2018-07-22T17:09:12.106Z,12.05
2018-07-22T17:11:44.016Z,12.98
2018-07-22T17:14:12.370Z,12.43
2018-07-22T17:16:40.650Z,9.40
2018-07-22T17:19:09.070Z,8.20
2018-07-22T17:21:37.384Z,7.72
2018-07-22T17:24:05.926Z,10.40
2018-07-22T17:26:34.306Z,9.80
2018-07-22T17:29:02.615Z,9.45
2018-07-22T17:31:31.537Z,10.58
2018-07-22T17:34:01.295Z,10.82
2018-07-22T17:36:30.681Z,10.98
2018-07-22T17:38:59.177Z,13.00
2018-07-22T17:41:27.576Z,13.48
2018-07-22T17:43:55.935Z,14.33
2018-07-22T17:46:24.253Z,13.48
2018-07-22T17:48:52.604Z,13.85
2018-07-22T17:51:20.969Z,13.13
2018-07-22T17:53:49.454Z,12.68
2018-07-22T17:56:17.723Z,12.75
2018-07-22T17:58:46.611Z,13.15
2018-07-22T18:01:15.107Z,13.40
2018-07-22T18:03:43.575Z,13.10
2018-07-22T18:06:11.905Z,12.93
2018-07-22T18:08:40.232Z,13.10
2018-07-22T18:11:08.567Z,12.73
2018-07-22T18:13:36.976Z,12.75
2018-07-22T18:16:05.279Z,12.93
2018-07-22T18:18:35.429Z,13.62
2018-07-22T18:21:05.495Z,15.23
2018-07-22T18:23:38.489Z,18.12
2018-07-22T18:26:08.583Z,15.18
2018-07-22T18:28:37.008Z,13.98
2018-07-22T18:31:05.305Z,13.62
2018-07-22T18:33:33.710Z,13.00
2018-07-22T18:36:02.073Z,13.22
2018-07-22T18:38:30.814Z,13.88
2018-07-22T18:41:00.072Z,14.68
2018-07-22T18:43:33.636Z,13.85
2018-07-22T18:46:01.924Z,13.13
2018-07-22T18:48:30.294Z,13.95
2018-07-22T18:51:00.229Z,13.70
2018-07-22T18:53:28.593Z,14.18
2018-07-22T18:55:59.906Z,14.15
2018-07-22T18:58:30.456Z,13.90
2018-07-22T19:00:58.795Z,15.30
2018-07-22T19:03:27.635Z,14.50
2018-07-22T19:05:58.016Z,14.55
2018-07-22T19:08:31.876Z,14.30
2018-07-22T19:11:01.307Z,14.28
2018-07-22T19:13:29.762Z,14.30
2018-07-22T19:15:59.791Z,15.72
2018-07-22T19:18:31.153Z,16.12
2018-07-22T19:21:00.697Z,16.42
2018-07-22T19:23:29.101Z,17.05
2018-07-22T19:25:58.899Z,16.90
2018-07-22T19:28:28.619Z,17.02
2018-07-22T19:30:57.598Z,17.25
2018-07-22T19:33:27.528Z,18.70
2018-07-22T19:35:56.163Z,17.95
2018-07-22T19:38:25.081Z,18.57
2018-07-22T19:40:54.926Z,18.48
2018-07-22T19:43:24.719Z,17.62
2018-07-22T19:45:54.149Z,17.77
2018-07-22T19:48:25.554Z,17.07
2018-07-22T19:50:55.456Z,17.70
2018-07-22T19:53:24.526Z,18.27
2018-07-22T19:55:53.539Z,19.15
2018-07-22T19:58:21.944Z,18.67
2018-07-22T20:00:50.284Z,18.15
2018-07-22T20:03:18.590Z,18.95
2018-07-22T20:05:47.012Z,18.77
2018-07-22T20:08:15.362Z,19.12
2018-07-22T20:10:44.009Z,18.73
2018-07-22T20:13:12.491Z,19.77
2018-07-22T20:15:40.843Z,18.32
2018-07-22T20:18:09.283Z,18.45
2018-07-22T20:20:37.638Z,18.50
2018-07-22T20:23:05.968Z,19.42
2018-07-22T20:25:34.478Z,17.85
2018-07-22T20:28:02.959Z,16.77
2018-07-22T20:30:31.292Z,16.30
2018-07-22T20:32:59.580Z,15.80
2018-07-22T20:35:27.959Z,14.83
2018-07-22T20:37:57.450Z,14.93
2018-07-22T20:40:25.791Z,14.73
2018-07-22T20:42:54.130Z,15.28
2018-07-22T20:45:22.711Z,16.30
2018-07-22T20:47:52.530Z,15.35
2018-07-22T20:50:21.048Z,14.68
2018-07-22T20:52:49.362Z,14.20
2018-07-22T20:55:17.703Z,15.35
2018-07-22T20:57:46.063Z,15.75
2018-07-22T21:00:14.699Z,15.78
2018-07-22T21:02:46.011Z,15.78
2018-07-22T21:05:14.342Z,15.45
2018-07-22T21:07:42.660Z,15.63
2018-07-22T21:10:11.006Z,14.68
2018-07-22T21:12:51.932Z,15.65
2018-07-22T21:15:20.472Z,14.33
2018-07-22T21:17:50.227Z,13.98
2018-07-22T21:20:19.519Z,14.20
2018-07-22T21:22:48.207Z,14.43
2018-07-22T21:25:17.031Z,15.63
2018-07-22T21:27:45.619Z,16.23
2018-07-22T21:30:14.622Z,15.20
2018-07-22T21:32:42.937Z,16.17
2018-07-22T21:35:11.436Z,16.27
2018-07-22T21:37:39.935Z,16.05
2018-07-22T21:40:08.301Z,17.40
2018-07-22T21:42:36.670Z,17.27
2018-07-22T21:45:06.101Z,18.12
2018-07-22T21:47:34.948Z,18.43
2018-07-22T21:50:03.322Z,18.17
2018-07-22T21:52:31.651Z,17.80
2018-07-22T21:54:59.978Z,18.12
2018-07-22T21:57:28.314Z,21.33
2018-07-22T21:59:56.668Z,20.52
2018-07-22T22:02:31.603Z,19.60
2018-07-22T22:05:00.595Z,20.70
2018-07-22T22:07:28.896Z,20.92
2018-07-22T22:09:57.300Z,19.40
2018-07-22T22:12:25.577Z,20.65
2018-07-22T22:14:54.006Z,20.70
2018-07-22T22:17:22.388Z,20.65
2018-07-22T22:19:50.754Z,20.27
2018-07-22T22:22:19.029Z,20.57
2018-07-22T22:24:47.467Z,19.52
2018-07-22T22:27:16.550Z,20.97
2018-07-22T22:29:44.862Z,20.05
2018-07-22T22:32:13.277Z,20.23
2018-07-22T22:34:42.076Z,18.63
2018-07-22T22:37:10.400Z,18.52
2018-07-22T22:39:43.398Z,19.77
2018-07-22T22:42:11.778Z,20.43
2018-07-22T22:44:40.065Z,20.55
2018-07-22T22:47:08.378Z,19.17
2018-07-22T22:49:36.663Z,20.55
2018-07-22T22:52:05.146Z,22.07
2018-07-22T22:54:34.089Z,22.77
2018-07-22T22:57:02.418Z,22.48
2018-07-22T22:59:30.716Z,21.55
2018-07-22T23:01:59.070Z,21.68
2018-07-22T23:04:27.419Z,23.33
2018-07-22T23:06:55.767Z,22.93
2018-07-22T23:09:24.109Z,23.43
2018-07-22T23:11:52.454Z,21.33
2018-07-22T23:14:20.780Z,22.13
2018-07-22T23:16:49.211Z,20.68
2018-07-22T23:19:17.520Z,21.33
2018-07-22T23:21:45.858Z,19.87
2018-07-22T23:24:14.141Z,20.43
2018-07-22T23:26:42.503Z,20.85
2018-07-22T23:29:10.782Z,21.50
2018-07-22T23:31:39.080Z,20.97
2018-07-22T23:34:07.394Z,22.22
2018-07-22T23:36:35.693Z,22.60
2018-07-22T23:39:06.163Z,24.10
2018-07-22T23:41:34.606Z,23.70
2018-07-22T23:44:02.914Z,22.90
2018-07-22T23:46:31.228Z,21.80
2018-07-22T23:48:59.493Z,22.50
2018-07-22T23:51:27.800Z,22.50
2018-07-22T23:53:56.088Z,22.80
2018-07-22T23:56:24.420Z,23.37
2018-07-22T23:58:52.727Z,22.83
